Rechercher aéroport 
image banner adimage banner adimage banner ad
image banner ad

PA38 - Beaver Run Heliport

Situé à Quakertown, United States

ICAO - PA38, IATA -

Données fournies par Airmate  

Information générale

Coordonnées: N40°1'29" W79°34'34"
Élévation : 1062 feet MSL.
 
Voir autres Aéroports à Pennsylvania

Données opérationnelles

Special qualification required
Heure actuelle UTC:
Heure actuelle locale:
Météo à : KLBE - Arnold Palmer Rgnl ( 31 km )
METAR: KLBE 150555Z AUTO 00000KT 9SM CLR 14/14 A2989 RMK AO2
TAF: KLBE 150536Z 1506/1606 00000KT 4SM BR SCT002 TEMPO 1509/1512 1/2SM FG BKN001 FM151300 30006KT P6SM SCT040 FM151600 30009G17KT P6SM SCT050 FM160000 31007KT P6SM SCT150
Voir NOTAMs / SUP AIP / TFR affectant cet aéroport [VIEW]
Fréquences de communication: [VIEW]

Pistes:

Coordonnées de l'aéroport

Adresse: Quakertown United States

Vue satellite de PA38